Huvudsida
METAR-TAF:

METAR-TAF

Flygplatser :

Chaudhary Charan Singh Airport

Lucknow, Indien

latitud: 26-45N, longitud: 080-53E, höjd: 122 m

Aktuellt väderrapport

Denna rapport gjordes för 38 minuter sedan, klockan 09:30 UTC
Vind 5 kt från ost/nordost
Temperatur 40°C
Fuktighet 38%
Tryck 1000 hPa
Sikt: 5000 m
torrdis,

METAR: VILK 200930Z 07005KT 5000 HZ NSC 40/23 Q1000 NOSIG

Tid: 15:38 (10:08 UTC)

Väderprognos

Denna rapport gjordes för 2 timmar och 8 minuter sedan, klockan 08:00 UTC
Prognos gäller från 20 kl. 09 UTC till 20 kl. 18 UTC
Vind 5 kt från ost/nordost
Sikt: 5000 m
torrdis
Blir
från 20 kl. 16 UTC till 20 kl. 18 UTC
Vind 2 kt varierande vindriktning
Sikt: 5000 m
Spridda moln på en höjd av 10000 ft
torrdis,

TAF: VILK 200800Z 2009/2018 07005KT 5000 HZ NSC BECMG 2016/2018 VRB02KT 5000 HZ SCT100

Aktuella väderrapporter och prognoser från 4000 flygplatser (METAR- och TAF-rapporter).

De tillgängliga stationerna syns som gula och röda prickar på kartan.

För musen över prickarna för att se namnen på stationerna.

Klicka sedan för att få väderrapporter och prognoser.

För att ändra kartan: Klicka på de gröna knapparna med ett svart kors på för att zooma in; den gröna knappen med ett streck på för att zooma ut; eller på de gröna pilarna för angränsande kartor.


METAR-TAF: